sensor_id;sensor_type;location;lat;lon;timestamp;P1;durP1;ratioP1;P2;durP2;ratioP2
48975;SDS011;34791;52.752;8.346;2022-07-18T00:02:00;10.17;;;5.13;;
48975;SDS011;34791;52.752;8.346;2022-07-18T00:04:27;10.60;;;4.77;;
48975;SDS011;34791;52.752;8.346;2022-07-18T00:06:53;11.50;;;4.77;;
48975;SDS011;34791;52.752;8.346;2022-07-18T00:09:18;10.10;;;4.97;;
48975;SDS011;34791;52.752;8.346;2022-07-18T00:11:44;8.47;;;5.23;;
48975;SDS011;34791;52.752;8.346;2022-07-18T00:14:10;13.77;;;5.20;;
48975;SDS011;34791;52.752;8.346;2022-07-18T00:16:35;9.03;;;4.60;;
48975;SDS011;34791;52.752;8.346;2022-07-18T00:19:01;9.37;;;4.80;;
48975;SDS011;34791;52.752;8.346;2022-07-18T00:21:27;9.23;;;5.30;;
48975;SDS011;34791;52.752;8.346;2022-07-18T00:23:52;11.87;;;5.47;;
48975;SDS011;34791;52.752;8.346;2022-07-18T00:26:18;11.17;;;5.13;;
48975;SDS011;34791;52.752;8.346;2022-07-18T00:28:43;9.37;;;5.20;;
48975;SDS011;34791;52.752;8.346;2022-07-18T00:31:08;14.77;;;5.50;;
48975;SDS011;34791;52.752;8.346;2022-07-18T00:33:33;10.47;;;5.70;;
48975;SDS011;34791;52.752;8.346;2022-07-18T00:35:59;11.57;;;5.33;;
48975;SDS011;34791;52.752;8.346;2022-07-18T00:38:24;9.47;;;5.30;;
48975;SDS011;34791;52.752;8.346;2022-07-18T00:40:49;10.30;;;5.33;;
48975;SDS011;34791;52.752;8.346;2022-07-18T00:43:15;8.27;;;4.50;;
48975;SDS011;34791;52.752;8.346;2022-07-18T00:45:44;12.87;;;4.97;;
48975;SDS011;34791;52.752;8.346;2022-07-18T00:48:09;7.73;;;4.87;;
48975;SDS011;34791;52.752;8.346;2022-07-18T00:50:34;9.13;;;4.83;;
48975;SDS011;34791;52.752;8.346;2022-07-18T00:52:59;7.70;;;4.73;;
48975;SDS011;34791;52.752;8.346;2022-07-18T00:55:25;9.50;;;5.00;;
48975;SDS011;34791;52.752;8.346;2022-07-18T00:57:50;8.67;;;4.70;;
48975;SDS011;34791;52.752;8.346;2022-07-18T01:00:16;7.43;;;4.97;;
48975;SDS011;34791;52.752;8.346;2022-07-18T01:03:00;7.53;;;4.70;;
48975;SDS011;34791;52.752;8.346;2022-07-18T01:05:25;13.47;;;5.47;;
48975;SDS011;34791;52.752;8.346;2022-07-18T01:07:50;10.00;;;5.53;;
48975;SDS011;34791;52.752;8.346;2022-07-18T01:10:16;13.67;;;6.03;;
48975;SDS011;34791;52.752;8.346;2022-07-18T01:12:42;11.67;;;5.00;;
48975;SDS011;34791;52.752;8.346;2022-07-18T01:15:08;9.43;;;4.83;;
48975;SDS011;34791;52.752;8.346;2022-07-18T01:17:33;10.83;;;4.80;;
48975;SDS011;34791;52.752;8.346;2022-07-18T01:19:58;12.60;;;5.80;;
48975;SDS011;34791;52.752;8.346;2022-07-18T01:22:24;8.87;;;5.17;;
48975;SDS011;34791;52.752;8.346;2022-07-18T01:24:49;8.07;;;5.20;;
48975;SDS011;34791;52.752;8.346;2022-07-18T01:27:15;8.30;;;5.70;;
48975;SDS011;34791;52.752;8.346;2022-07-18T01:29:40;10.00;;;5.57;;
48975;SDS011;34791;52.752;8.346;2022-07-18T01:32:06;12.43;;;6.27;;
48975;SDS011;34791;52.752;8.346;2022-07-18T01:34:32;10.93;;;5.47;;
48975;SDS011;34791;52.752;8.346;2022-07-18T01:36:57;9.33;;;5.37;;
48975;SDS011;34791;52.752;8.346;2022-07-18T01:39:22;9.80;;;6.13;;
48975;SDS011;34791;52.752;8.346;2022-07-18T01:41:54;11.17;;;6.07;;
48975;SDS011;34791;52.752;8.346;2022-07-18T01:46:44;9.32;;;5.82;;
48975;SDS011;34791;52.752;8.346;2022-07-18T01:49:10;12.97;;;6.60;;
48975;SDS011;34791;52.752;8.346;2022-07-18T01:51:35;10.27;;;6.93;;
48975;SDS011;34791;52.752;8.346;2022-07-18T01:54:00;14.97;;;6.87;;
48975;SDS011;34791;52.752;8.346;2022-07-18T01:56:26;9.27;;;5.40;;
48975;SDS011;34791;52.752;8.346;2022-07-18T01:58:52;9.97;;;5.37;;
48975;SDS011;34791;52.752;8.346;2022-07-18T02:01:17;11.40;;;5.93;;
48975;SDS011;34791;52.752;8.346;2022-07-18T02:03:42;10.17;;;5.60;;
48975;SDS011;34791;52.752;8.346;2022-07-18T02:06:08;11.90;;;5.47;;
48975;SDS011;34791;52.752;8.346;2022-07-18T02:08:33;12.30;;;6.37;;
48975;SDS011;34791;52.752;8.346;2022-07-18T02:10:58;16.07;;;6.70;;
48975;SDS011;34791;52.752;8.346;2022-07-18T02:13:23;11.50;;;6.30;;
48975;SDS011;34791;52.752;8.346;2022-07-18T02:15:49;9.60;;;5.53;;
48975;SDS011;34791;52.752;8.346;2022-07-18T02:18:14;10.43;;;5.97;;
48975;SDS011;34791;52.752;8.346;2022-07-18T02:20:39;11.03;;;5.73;;
48975;SDS011;34791;52.752;8.346;2022-07-18T02:23:04;10.80;;;5.97;;
48975;SDS011;34791;52.752;8.346;2022-07-18T02:25:30;11.83;;;6.23;;
48975;SDS011;34791;52.752;8.346;2022-07-18T02:27:55;10.17;;;5.77;;
48975;SDS011;34791;52.752;8.346;2022-07-18T02:30:20;9.40;;;5.53;;
48975;SDS011;34791;52.752;8.346;2022-07-18T02:32:46;10.60;;;5.30;;
48975;SDS011;34791;52.752;8.346;2022-07-18T02:35:11;13.40;;;5.20;;
48975;SDS011;34791;52.752;8.346;2022-07-18T02:37:37;11.80;;;5.23;;
48975;SDS011;34791;52.752;8.346;2022-07-18T02:40:04;11.30;;;5.70;;
48975;SDS011;34791;52.752;8.346;2022-07-18T02:42:29;10.40;;;5.67;;
48975;SDS011;34791;52.752;8.346;2022-07-18T02:44:54;9.57;;;5.53;;
48975;SDS011;34791;52.752;8.346;2022-07-18T02:47:19;11.20;;;5.80;;
48975;SDS011;34791;52.752;8.346;2022-07-18T02:49:44;10.33;;;5.60;;
48975;SDS011;34791;52.752;8.346;2022-07-18T02:52:10;10.67;;;5.63;;
48975;SDS011;34791;52.752;8.346;2022-07-18T02:54:35;10.17;;;5.30;;
48975;SDS011;34791;52.752;8.346;2022-07-18T02:57:01;10.60;;;5.53;;
48975;SDS011;34791;52.752;8.346;2022-07-18T02:59:27;9.80;;;5.30;;
48975;SDS011;34791;52.752;8.346;2022-07-18T03:01:52;8.57;;;5.30;;
48975;SDS011;34791;52.752;8.346;2022-07-18T03:04:18;8.03;;;4.90;;
48975;SDS011;34791;52.752;8.346;2022-07-18T03:06:44;9.60;;;5.13;;
48975;SDS011;34791;52.752;8.346;2022-07-18T03:09:09;10.47;;;5.23;;
48975;SDS011;34791;52.752;8.346;2022-07-18T03:11:35;12.67;;;5.77;;
48975;SDS011;34791;52.752;8.346;2022-07-18T03:14:00;10.33;;;5.77;;
48975;SDS011;34791;52.752;8.346;2022-07-18T03:16:25;10.77;;;5.37;;
48975;SDS011;34791;52.752;8.346;2022-07-18T03:18:51;11.40;;;6.20;;
48975;SDS011;34791;52.752;8.346;2022-07-18T03:21:16;10.90;;;5.67;;
48975;SDS011;34791;52.752;8.346;2022-07-18T03:23:41;10.13;;;5.40;;
48975;SDS011;34791;52.752;8.346;2022-07-18T03:26:06;11.10;;;5.50;;
48975;SDS011;34791;52.752;8.346;2022-07-18T03:28:31;84.77;;;9.40;;
48975;SDS011;34791;52.752;8.346;2022-07-18T03:30:57;20.20;;;5.80;;
48975;SDS011;34791;52.752;8.346;2022-07-18T03:33:24;19.93;;;6.30;;
48975;SDS011;34791;52.752;8.346;2022-07-18T03:35:49;14.30;;;4.90;;
48975;SDS011;34791;52.752;8.346;2022-07-18T03:38:14;11.27;;;5.13;;
48975;SDS011;34791;52.752;8.346;2022-07-18T03:40:40;11.97;;;4.97;;
48975;SDS011;34791;52.752;8.346;2022-07-18T03:43:05;10.53;;;4.77;;
48975;SDS011;34791;52.752;8.346;2022-07-18T03:45:30;11.30;;;5.03;;
48975;SDS011;34791;52.752;8.346;2022-07-18T03:47:55;17.60;;;5.27;;
48975;SDS011;34791;52.752;8.346;2022-07-18T03:50:20;11.43;;;4.83;;
48975;SDS011;34791;52.752;8.346;2022-07-18T03:52:46;9.40;;;4.97;;
48975;SDS011;34791;52.752;8.346;2022-07-18T03:55:11;12.83;;;4.83;;
48975;SDS011;34791;52.752;8.346;2022-07-18T03:57:36;10.37;;;5.10;;
48975;SDS011;34791;52.752;8.346;2022-07-18T04:00:02;12.00;;;4.00;;
48975;SDS011;34791;52.752;8.346;2022-07-18T04:02:28;8.57;;;4.13;;
48975;SDS011;34791;52.752;8.346;2022-07-18T04:04:53;12.07;;;4.33;;
48975;SDS011;34791;52.752;8.346;2022-07-18T04:07:18;8.80;;;4.30;;
48975;SDS011;34791;52.752;8.346;2022-07-18T04:09:43;10.47;;;4.20;;
48975;SDS011;34791;52.752;8.346;2022-07-18T04:12:09;9.03;;;4.13;;
48975;SDS011;34791;52.752;8.346;2022-07-18T04:14:34;10.83;;;4.20;;
48975;SDS011;34791;52.752;8.346;2022-07-18T04:16:59;16.27;;;5.50;;
48975;SDS011;34791;52.752;8.346;2022-07-18T04:19:24;7.90;;;4.20;;
48975;SDS011;34791;52.752;8.346;2022-07-18T04:21:50;8.17;;;4.07;;
48975;SDS011;34791;52.752;8.346;2022-07-18T04:24:15;7.73;;;3.87;;
48975;SDS011;34791;52.752;8.346;2022-07-18T04:26:40;8.80;;;3.83;;
48975;SDS011;34791;52.752;8.346;2022-07-18T04:29:05;11.63;;;3.80;;
48975;SDS011;34791;52.752;8.346;2022-07-18T04:31:31;8.20;;;3.97;;
48975;SDS011;34791;52.752;8.346;2022-07-18T04:33:56;12.53;;;3.70;;
48975;SDS011;34791;52.752;8.346;2022-07-18T04:36:21;10.20;;;4.03;;
48975;SDS011;34791;52.752;8.346;2022-07-18T04:38:47;13.27;;;3.50;;
48975;SDS011;34791;52.752;8.346;2022-07-18T04:41:12;10.27;;;3.88;;
48975;SDS011;34791;52.752;8.346;2022-07-18T04:43:37;8.55;;;3.30;;
48975;SDS011;34791;52.752;8.346;2022-07-18T04:46:03;8.20;;;3.25;;
48975;SDS011;34791;52.752;8.346;2022-07-18T04:48:28;9.40;;;3.10;;
48975;SDS011;34791;52.752;8.346;2022-07-18T04:50:53;9.40;;;3.35;;
48975;SDS011;34791;52.752;8.346;2022-07-18T04:53:19;9.02;;;2.80;;
48975;SDS011;34791;52.752;8.346;2022-07-18T04:55:44;8.75;;;3.30;;
48975;SDS011;34791;52.752;8.346;2022-07-18T04:58:09;11.85;;;3.50;;
48975;SDS011;34791;52.752;8.346;2022-07-18T05:00:35;10.23;;;3.10;;
48975;SDS011;34791;52.752;8.346;2022-07-18T05:03:00;7.63;;;3.08;;
48975;SDS011;34791;52.752;8.346;2022-07-18T05:05:26;10.57;;;3.17;;
48975;SDS011;34791;52.752;8.346;2022-07-18T05:07:52;12.20;;;3.22;;
48975;SDS011;34791;52.752;8.346;2022-07-18T05:10:18;10.95;;;3.83;;
48975;SDS011;34791;52.752;8.346;2022-07-18T05:12:45;10.38;;;2.97;;
48975;SDS011;34791;52.752;8.346;2022-07-18T05:15:12;8.25;;;3.20;;
48975;SDS011;34791;52.752;8.346;2022-07-18T05:17:38;6.78;;;3.15;;
48975;SDS011;34791;52.752;8.346;2022-07-18T05:20:04;4.90;;;2.75;;
48975;SDS011;34791;52.752;8.346;2022-07-18T05:22:29;12.35;;;2.97;;
48975;SDS011;34791;52.752;8.346;2022-07-18T05:24:54;5.38;;;2.45;;
48975;SDS011;34791;52.752;8.346;2022-07-18T05:27:19;8.82;;;2.45;;
48975;SDS011;34791;52.752;8.346;2022-07-18T05:29:45;6.38;;;2.45;;
48975;SDS011;34791;52.752;8.346;2022-07-18T05:32:10;5.55;;;2.30;;
48975;SDS011;34791;52.752;8.346;2022-07-18T05:34:36;6.55;;;2.50;;
48975;SDS011;34791;52.752;8.346;2022-07-18T05:37:01;6.85;;;2.60;;
48975;SDS011;34791;52.752;8.346;2022-07-18T05:39:27;6.15;;;2.58;;
48975;SDS011;34791;52.752;8.346;2022-07-18T05:41:52;6.18;;;2.70;;
48975;SDS011;34791;52.752;8.346;2022-07-18T05:44:17;6.82;;;2.95;;
48975;SDS011;34791;52.752;8.346;2022-07-18T05:46:45;5.72;;;2.60;;
48975;SDS011;34791;52.752;8.346;2022-07-18T05:49:10;8.57;;;2.55;;
48975;SDS011;34791;52.752;8.346;2022-07-18T05:51:35;8.15;;;2.50;;
48975;SDS011;34791;52.752;8.346;2022-07-18T05:54:00;6.32;;;2.33;;
48975;SDS011;34791;52.752;8.346;2022-07-18T05:56:25;5.57;;;2.40;;
48975;SDS011;34791;52.752;8.346;2022-07-18T05:58:51;6.57;;;2.42;;
48975;SDS011;34791;52.752;8.346;2022-07-18T06:01:16;6.43;;;2.70;;
48975;SDS011;34791;52.752;8.346;2022-07-18T06:03:45;6.82;;;2.50;;
48975;SDS011;34791;52.752;8.346;2022-07-18T06:06:10;7.38;;;2.80;;
48975;SDS011;34791;52.752;8.346;2022-07-18T06:08:36;6.65;;;2.25;;
48975;SDS011;34791;52.752;8.346;2022-07-18T06:11:01;7.28;;;2.33;;
48975;SDS011;34791;52.752;8.346;2022-07-18T06:13:28;11.60;;;2.10;;
48975;SDS011;34791;52.752;8.346;2022-07-18T06:15:54;6.72;;;1.95;;
48975;SDS011;34791;52.752;8.346;2022-07-18T06:18:19;6.05;;;2.10;;
48975;SDS011;34791;52.752;8.346;2022-07-18T06:20:44;12.25;;;2.20;;
48975;SDS011;34791;52.752;8.346;2022-07-18T06:23:09;6.57;;;2.40;;
48975;SDS011;34791;52.752;8.346;2022-07-18T06:25:35;7.53;;;1.90;;
48975;SDS011;34791;52.752;8.346;2022-07-18T06:28:00;5.85;;;1.73;;
48975;SDS011;34791;52.752;8.346;2022-07-18T06:30:25;5.93;;;2.00;;
48975;SDS011;34791;52.752;8.346;2022-07-18T06:32:50;4.22;;;1.83;;
48975;SDS011;34791;52.752;8.346;2022-07-18T06:35:16;5.60;;;1.85;;
48975;SDS011;34791;52.752;8.346;2022-07-18T06:37:41;5.25;;;1.77;;
48975;SDS011;34791;52.752;8.346;2022-07-18T06:40:06;8.60;;;1.90;;
48975;SDS011;34791;52.752;8.346;2022-07-18T06:42:32;4.72;;;1.77;;
48975;SDS011;34791;52.752;8.346;2022-07-18T06:44:58;5.00;;;1.60;;
48975;SDS011;34791;52.752;8.346;2022-07-18T06:47:23;4.07;;;1.70;;
48975;SDS011;34791;52.752;8.346;2022-07-18T06:49:48;7.50;;;1.77;;
48975;SDS011;34791;52.752;8.346;2022-07-18T06:52:13;6.85;;;1.80;;
48975;SDS011;34791;52.752;8.346;2022-07-18T06:54:40;6.25;;;2.00;;
48975;SDS011;34791;52.752;8.346;2022-07-18T06:57:06;6.75;;;1.80;;
48975;SDS011;34791;52.752;8.346;2022-07-18T06:59:32;3.55;;;1.50;;
48975;SDS011;34791;52.752;8.346;2022-07-18T07:01:58;4.40;;;1.60;;
48975;SDS011;34791;52.752;8.346;2022-07-18T07:04:23;6.18;;;1.95;;
48975;SDS011;34791;52.752;8.346;2022-07-18T07:06:49;5.40;;;1.85;;
48975;SDS011;34791;52.752;8.346;2022-07-18T07:09:14;5.38;;;1.88;;
48975;SDS011;34791;52.752;8.346;2022-07-18T07:11:39;3.92;;;1.50;;
48975;SDS011;34791;52.752;8.346;2022-07-18T07:14:04;6.35;;;1.63;;
48975;SDS011;34791;52.752;8.346;2022-07-18T07:16:29;4.20;;;1.70;;
48975;SDS011;34791;52.752;8.346;2022-07-18T07:18:55;4.97;;;1.70;;
48975;SDS011;34791;52.752;8.346;2022-07-18T07:21:20;6.53;;;1.90;;
48975;SDS011;34791;52.752;8.346;2022-07-18T07:23:45;8.68;;;1.95;;
48975;SDS011;34791;52.752;8.346;2022-07-18T07:26:10;4.68;;;1.83;;
48975;SDS011;34791;52.752;8.346;2022-07-18T07:28:36;7.20;;;1.70;;
48975;SDS011;34791;52.752;8.346;2022-07-18T07:31:01;5.18;;;1.50;;
48975;SDS011;34791;52.752;8.346;2022-07-18T07:33:26;5.32;;;1.58;;
48975;SDS011;34791;52.752;8.346;2022-07-18T07:35:51;5.43;;;1.63;;
48975;SDS011;34791;52.752;8.346;2022-07-18T07:38:17;4.40;;;1.27;;
48975;SDS011;34791;52.752;8.346;2022-07-18T07:40:47;5.82;;;1.45;;
48975;SDS011;34791;52.752;8.346;2022-07-18T07:43:13;4.20;;;1.30;;
48975;SDS011;34791;52.752;8.346;2022-07-18T07:45:39;6.95;;;1.63;;
48975;SDS011;34791;52.752;8.346;2022-07-18T07:48:05;3.70;;;1.48;;
48975;SDS011;34791;52.752;8.346;2022-07-18T07:50:30;5.18;;;1.60;;
48975;SDS011;34791;52.752;8.346;2022-07-18T07:52:56;5.32;;;1.40;;
48975;SDS011;34791;52.752;8.346;2022-07-18T07:55:21;4.03;;;1.15;;
48975;SDS011;34791;52.752;8.346;2022-07-18T07:57:47;4.80;;;1.30;;
48975;SDS011;34791;52.752;8.346;2022-07-18T08:00:12;5.00;;;1.17;;
48975;SDS011;34791;52.752;8.346;2022-07-18T08:02:49;3.58;;;1.10;;
48975;SDS011;34791;52.752;8.346;2022-07-18T08:05:15;4.53;;;1.10;;
48975;SDS011;34791;52.752;8.346;2022-07-18T08:07:40;4.85;;;1.00;;
48975;SDS011;34791;52.752;8.346;2022-07-18T08:10:05;5.25;;;1.20;;
48975;SDS011;34791;52.752;8.346;2022-07-18T08:12:31;3.70;;;1.05;;
48975;SDS011;34791;52.752;8.346;2022-07-18T08:14:56;6.17;;;0.93;;
48975;SDS011;34791;52.752;8.346;2022-07-18T08:17:21;5.40;;;1.15;;
48975;SDS011;34791;52.752;8.346;2022-07-18T08:19:46;2.83;;;1.10;;
48975;SDS011;34791;52.752;8.346;2022-07-18T08:22:12;5.60;;;0.97;;
48975;SDS011;34791;52.752;8.346;2022-07-18T08:24:37;4.45;;;1.05;;
48975;SDS011;34791;52.752;8.346;2022-07-18T08:27:02;4.77;;;0.90;;
48975;SDS011;34791;52.752;8.346;2022-07-18T08:29:27;5.05;;;1.25;;
48975;SDS011;34791;52.752;8.346;2022-07-18T08:31:52;3.22;;;0.82;;
48975;SDS011;34791;52.752;8.346;2022-07-18T08:34:18;4.30;;;0.93;;
48975;SDS011;34791;52.752;8.346;2022-07-18T08:36:43;3.23;;;0.90;;
48975;SDS011;34791;52.752;8.346;2022-07-18T08:39:08;6.00;;;1.10;;
48975;SDS011;34791;52.752;8.346;2022-07-18T08:41:34;3.60;;;1.00;;
48975;SDS011;34791;52.752;8.346;2022-07-18T08:44:00;3.75;;;0.90;;
48975;SDS011;34791;52.752;8.346;2022-07-18T08:46:26;7.78;;;1.23;;
48975;SDS011;34791;52.752;8.346;2022-07-18T08:48:52;3.58;;;0.95;;
48975;SDS011;34791;52.752;8.346;2022-07-18T08:51:20;3.70;;;0.95;;
48975;SDS011;34791;52.752;8.346;2022-07-18T08:53:47;3.83;;;0.90;;
48975;SDS011;34791;52.752;8.346;2022-07-18T08:56:13;3.58;;;1.00;;
48975;SDS011;34791;52.752;8.346;2022-07-18T08:58:38;5.97;;;0.80;;
48975;SDS011;34791;52.752;8.346;2022-07-18T09:01:04;2.78;;;0.88;;
48975;SDS011;34791;52.752;8.346;2022-07-18T09:03:29;4.88;;;1.00;;
48975;SDS011;34791;52.752;8.346;2022-07-18T09:08:32;3.05;;;0.90;;
48975;SDS011;34791;52.752;8.346;2022-07-18T09:10:58;2.88;;;0.82;;
48975;SDS011;34791;52.752;8.346;2022-07-18T09:13:25;2.80;;;0.88;;
48975;SDS011;34791;52.752;8.346;2022-07-18T09:18:30;8.55;;;1.13;;
48975;SDS011;34791;52.752;8.346;2022-07-18T09:21:02;2.10;;;0.80;;
48975;SDS011;34791;52.752;8.346;2022-07-18T09:23:31;4.72;;;0.90;;
48975;SDS011;34791;52.752;8.346;2022-07-18T09:25:57;5.05;;;1.10;;
48975;SDS011;34791;52.752;8.346;2022-07-18T09:28:25;2.60;;;1.00;;
48975;SDS011;34791;52.752;8.346;2022-07-18T09:30:51;6.70;;;0.98;;
48975;SDS011;34791;52.752;8.346;2022-07-18T09:33:16;4.72;;;0.98;;
48975;SDS011;34791;52.752;8.346;2022-07-18T09:35:42;5.10;;;1.00;;
48975;SDS011;34791;52.752;8.346;2022-07-18T09:38:09;5.65;;;1.13;;
48975;SDS011;34791;52.752;8.346;2022-07-18T09:43:06;2.08;;;0.90;;
48975;SDS011;34791;52.752;8.346;2022-07-18T09:47:58;4.68;;;1.35;;
48975;SDS011;34791;52.752;8.346;2022-07-18T09:50:25;3.55;;;1.30;;
48975;SDS011;34791;52.752;8.346;2022-07-18T09:52:57;2.67;;;1.27;;
48975;SDS011;34791;52.752;8.346;2022-07-18T09:55:22;5.25;;;1.27;;
48975;SDS011;34791;52.752;8.346;2022-07-18T09:57:56;3.88;;;1.40;;
48975;SDS011;34791;52.752;8.346;2022-07-18T10:00:21;4.15;;;1.40;;
48975;SDS011;34791;52.752;8.346;2022-07-18T10:02:47;5.47;;;1.45;;
48975;SDS011;34791;52.752;8.346;2022-07-18T10:05:12;3.15;;;1.27;;
48975;SDS011;34791;52.752;8.346;2022-07-18T10:07:38;5.18;;;1.30;;
48975;SDS011;34791;52.752;8.346;2022-07-18T10:10:03;4.32;;;1.75;;
48975;SDS011;34791;52.752;8.346;2022-07-18T10:12:29;4.07;;;1.67;;
48975;SDS011;34791;52.752;8.346;2022-07-18T10:14:55;3.97;;;1.73;;
48975;SDS011;34791;52.752;8.346;2022-07-18T10:17:21;3.22;;;1.40;;
48975;SDS011;34791;52.752;8.346;2022-07-18T10:19:47;3.97;;;1.50;;
48975;SDS011;34791;52.752;8.346;2022-07-18T10:22:12;3.70;;;1.47;;
48975;SDS011;34791;52.752;8.346;2022-07-18T10:24:40;3.17;;;1.42;;
48975;SDS011;34791;52.752;8.346;2022-07-18T10:27:17;3.92;;;1.60;;
48975;SDS011;34791;52.752;8.346;2022-07-18T10:32:46;3.80;;;1.40;;
48975;SDS011;34791;52.752;8.346;2022-07-18T10:35:14;3.30;;;1.40;;
48975;SDS011;34791;52.752;8.346;2022-07-18T10:37:40;3.72;;;1.50;;
48975;SDS011;34791;52.752;8.346;2022-07-18T10:40:21;3.55;;;1.42;;
48975;SDS011;34791;52.752;8.346;2022-07-18T10:43:07;4.20;;;2.03;;
48975;SDS011;34791;52.752;8.346;2022-07-18T10:45:42;3.67;;;1.90;;
48975;SDS011;34791;52.752;8.346;2022-07-18T10:51:02;3.75;;;1.60;;
48975;SDS011;34791;52.752;8.346;2022-07-18T10:56:14;4.25;;;1.58;;
48975;SDS011;34791;52.752;8.346;2022-07-18T10:58:40;3.30;;;1.80;;
48975;SDS011;34791;52.752;8.346;2022-07-18T11:01:05;4.50;;;2.38;;
48975;SDS011;34791;52.752;8.346;2022-07-18T11:03:36;3.85;;;2.20;;
48975;SDS011;34791;52.752;8.346;2022-07-18T11:06:01;4.47;;;1.63;;
48975;SDS011;34791;52.752;8.346;2022-07-18T11:08:29;3.92;;;2.10;;
48975;SDS011;34791;52.752;8.346;2022-07-18T11:21:03;3.70;;;1.53;;
48975;SDS011;34791;52.752;8.346;2022-07-18T11:23:41;4.50;;;1.50;;
48975;SDS011;34791;52.752;8.346;2022-07-18T11:26:09;3.45;;;1.60;;
48975;SDS011;34791;52.752;8.346;2022-07-18T11:28:38;6.28;;;1.80;;
48975;SDS011;34791;52.752;8.346;2022-07-18T11:31:08;4.40;;;1.70;;
48975;SDS011;34791;52.752;8.346;2022-07-18T11:33:36;3.90;;;1.48;;
48975;SDS011;34791;52.752;8.346;2022-07-18T11:36:02;5.70;;;1.73;;
48975;SDS011;34791;52.752;8.346;2022-07-18T11:38:27;5.88;;;1.50;;
48975;SDS011;34791;52.752;8.346;2022-07-18T11:40:52;3.80;;;1.73;;
48975;SDS011;34791;52.752;8.346;2022-07-18T11:43:21;4.82;;;1.80;;
48975;SDS011;34791;52.752;8.346;2022-07-18T11:45:47;4.22;;;1.60;;
48975;SDS011;34791;52.752;8.346;2022-07-18T11:48:19;7.75;;;2.00;;
48975;SDS011;34791;52.752;8.346;2022-07-18T11:50:45;4.35;;;1.50;;
48975;SDS011;34791;52.752;8.346;2022-07-18T11:53:10;4.93;;;1.50;;
48975;SDS011;34791;52.752;8.346;2022-07-18T11:55:36;4.03;;;1.50;;
48975;SDS011;34791;52.752;8.346;2022-07-18T11:58:06;5.28;;;1.80;;
48975;SDS011;34791;52.752;8.346;2022-07-18T12:00:31;3.30;;;1.67;;
48975;SDS011;34791;52.752;8.346;2022-07-18T12:03:04;3.77;;;1.57;;
48975;SDS011;34791;52.752;8.346;2022-07-18T12:05:31;3.60;;;1.60;;
48975;SDS011;34791;52.752;8.346;2022-07-18T12:07:56;4.15;;;1.60;;
48975;SDS011;34791;52.752;8.346;2022-07-18T12:10:21;4.63;;;1.80;;
48975;SDS011;34791;52.752;8.346;2022-07-18T12:12:47;6.07;;;1.80;;
48975;SDS011;34791;52.752;8.346;2022-07-18T12:15:12;4.57;;;2.00;;
48975;SDS011;34791;52.752;8.346;2022-07-18T12:17:44;5.10;;;1.88;;
48975;SDS011;34791;52.752;8.346;2022-07-18T12:22:35;4.73;;;1.80;;
48975;SDS011;34791;52.752;8.346;2022-07-18T12:25:00;6.35;;;2.00;;
48975;SDS011;34791;52.752;8.346;2022-07-18T12:27:33;4.18;;;1.90;;
48975;SDS011;34791;52.752;8.346;2022-07-18T12:35:05;5.75;;;1.88;;
48975;SDS011;34791;52.752;8.346;2022-07-18T12:37:31;3.72;;;1.90;;
48975;SDS011;34791;52.752;8.346;2022-07-18T12:40:00;6.20;;;2.03;;
48975;SDS011;34791;52.752;8.346;2022-07-18T12:42:29;5.57;;;2.13;;
48975;SDS011;34791;52.752;8.346;2022-07-18T12:44:55;5.50;;;1.90;;
48975;SDS011;34791;52.752;8.346;2022-07-18T12:47:20;6.87;;;2.40;;
48975;SDS011;34791;52.752;8.346;2022-07-18T12:49:45;3.97;;;2.20;;
48975;SDS011;34791;52.752;8.346;2022-07-18T12:52:11;6.65;;;2.20;;
48975;SDS011;34791;52.752;8.346;2022-07-18T12:54:36;4.55;;;1.80;;
48975;SDS011;34791;52.752;8.346;2022-07-18T12:57:01;4.45;;;2.30;;
48975;SDS011;34791;52.752;8.346;2022-07-18T12:59:26;7.40;;;1.83;;
48975;SDS011;34791;52.752;8.346;2022-07-18T13:01:52;3.67;;;1.95;;
48975;SDS011;34791;52.752;8.346;2022-07-18T13:04:17;4.45;;;1.88;;
48975;SDS011;34791;52.752;8.346;2022-07-18T13:06:42;3.38;;;1.90;;
48975;SDS011;34791;52.752;8.346;2022-07-18T13:09:07;3.83;;;1.80;;
48975;SDS011;34791;52.752;8.346;2022-07-18T13:11:32;3.97;;;1.60;;
48975;SDS011;34791;52.752;8.346;2022-07-18T13:13:58;3.80;;;1.80;;
48975;SDS011;34791;52.752;8.346;2022-07-18T13:16:23;4.95;;;1.70;;
48975;SDS011;34791;52.752;8.346;2022-07-18T13:18:48;4.13;;;1.90;;
48975;SDS011;34791;52.752;8.346;2022-07-18T13:21:14;4.07;;;1.83;;
48975;SDS011;34791;52.752;8.346;2022-07-18T13:23:41;3.50;;;1.70;;
48975;SDS011;34791;52.752;8.346;2022-07-18T13:26:07;3.55;;;1.85;;
48975;SDS011;34791;52.752;8.346;2022-07-18T13:28:32;4.75;;;1.90;;
48975;SDS011;34791;52.752;8.346;2022-07-18T13:30:57;4.53;;;2.08;;
48975;SDS011;34791;52.752;8.346;2022-07-18T13:33:23;4.25;;;1.85;;
48975;SDS011;34791;52.752;8.346;2022-07-18T13:35:48;5.82;;;2.22;;
48975;SDS011;34791;52.752;8.346;2022-07-18T13:38:13;5.05;;;1.80;;
48975;SDS011;34791;52.752;8.346;2022-07-18T13:40:38;4.18;;;1.80;;
48975;SDS011;34791;52.752;8.346;2022-07-18T13:43:04;4.20;;;1.90;;
48975;SDS011;34791;52.752;8.346;2022-07-18T13:45:29;4.33;;;1.90;;
48975;SDS011;34791;52.752;8.346;2022-07-18T13:47:54;4.87;;;2.07;;
48975;SDS011;34791;52.752;8.346;2022-07-18T13:50:19;4.07;;;1.90;;
48975;SDS011;34791;52.752;8.346;2022-07-18T13:52:44;5.60;;;1.83;;
48975;SDS011;34791;52.752;8.346;2022-07-18T13:55:10;4.97;;;1.77;;
48975;SDS011;34791;52.752;8.346;2022-07-18T13:57:35;4.05;;;1.80;;
48975;SDS011;34791;52.752;8.346;2022-07-18T14:00:00;5.90;;;1.93;;
48975;SDS011;34791;52.752;8.346;2022-07-18T14:02:26;4.78;;;1.80;;
48975;SDS011;34791;52.752;8.346;2022-07-18T14:04:52;3.85;;;1.80;;
48975;SDS011;34791;52.752;8.346;2022-07-18T14:07:17;3.45;;;1.70;;
48975;SDS011;34791;52.752;8.346;2022-07-18T14:09:44;4.00;;;1.63;;
48975;SDS011;34791;52.752;8.346;2022-07-18T14:12:09;6.85;;;2.20;;
48975;SDS011;34791;52.752;8.346;2022-07-18T14:14:34;4.22;;;1.80;;
48975;SDS011;34791;52.752;8.346;2022-07-18T14:17:00;5.10;;;1.90;;
48975;SDS011;34791;52.752;8.346;2022-07-18T14:19:25;3.47;;;1.60;;
48975;SDS011;34791;52.752;8.346;2022-07-18T14:21:50;6.13;;;2.00;;
48975;SDS011;34791;52.752;8.346;2022-07-18T14:24:16;5.47;;;1.70;;
48975;SDS011;34791;52.752;8.346;2022-07-18T14:26:41;4.27;;;1.63;;
48975;SDS011;34791;52.752;8.346;2022-07-18T14:29:06;6.82;;;1.95;;
48975;SDS011;34791;52.752;8.346;2022-07-18T14:31:31;5.50;;;2.10;;
48975;SDS011;34791;52.752;8.346;2022-07-18T14:33:56;4.85;;;1.65;;
48975;SDS011;34791;52.752;8.346;2022-07-18T14:36:22;5.13;;;2.17;;
48975;SDS011;34791;52.752;8.346;2022-07-18T14:38:47;5.93;;;1.80;;
48975;SDS011;34791;52.752;8.346;2022-07-18T14:41:12;5.70;;;1.80;;
48975;SDS011;34791;52.752;8.346;2022-07-18T14:43:38;4.80;;;1.90;;
48975;SDS011;34791;52.752;8.346;2022-07-18T14:46:03;2.97;;;1.70;;
48975;SDS011;34791;52.752;8.346;2022-07-18T14:48:28;3.20;;;1.70;;
48975;SDS011;34791;52.752;8.346;2022-07-18T14:50:53;5.38;;;1.70;;
48975;SDS011;34791;52.752;8.346;2022-07-18T14:53:19;5.50;;;1.80;;
48975;SDS011;34791;52.752;8.346;2022-07-18T14:55:45;5.57;;;1.60;;
48975;SDS011;34791;52.752;8.346;2022-07-18T14:58:10;5.13;;;1.63;;
48975;SDS011;34791;52.752;8.346;2022-07-18T15:00:35;4.53;;;1.70;;
48975;SDS011;34791;52.752;8.346;2022-07-18T15:03:01;4.90;;;1.80;;
48975;SDS011;34791;52.752;8.346;2022-07-18T15:05:26;3.22;;;1.48;;
48975;SDS011;34791;52.752;8.346;2022-07-18T15:07:51;4.72;;;2.00;;
48975;SDS011;34791;52.752;8.346;2022-07-18T15:10:17;5.03;;;2.15;;
48975;SDS011;34791;52.752;8.346;2022-07-18T15:12:42;5.45;;;1.70;;
48975;SDS011;34791;52.752;8.346;2022-07-18T15:15:07;4.75;;;1.58;;
48975;SDS011;34791;52.752;8.346;2022-07-18T15:17:33;3.38;;;1.70;;